KBYG

Details ICAO KBYG
Name JOHNSON CO
Region United States
Timezone America/Denver (UTC-6.0)
Plans Departing 4
Arriving 6
Stats Elevation 4,968 ft / 1,514 m (AMSL)
Location 44.381057° -106.721909°
Runways 1
Magnetic Variation 9.527° E
Sunrise 2018-05-26 11:30:55 UTC / 2018-05-26 05:30:55 Local
Sunset 2018-05-27 02:39:53 UTC / 2018-05-26 20:39:53 Local
Advertisement - Login to hide

Runways

ID Width Length Bearing (true) Bearing (mag) Surface Threshold Offset Overrun Length
13 75 ft / 23 m 6,131 ft / 1,869 m 138.19° 128.66° Asphalt 0 ft / 0 m 0 ft / 0 m
31 75 ft / 23 m 6,131 ft / 1,869 m 318.21° 308.68° Asphalt 0 ft / 0 m 0 ft / 0 m

Map

Weather


0- 5 10 15 20 25 30 35+ Temperature / ° C

Clouds and Precipitation
Forecast for 2018-05-26 06:00 UTC. Updated 3 hours ago

Ground ~20,000 ft ~40,000 ft Winds

METAR

KBYG 260753Z AUTO 27003KT 10SM CLR 16/08 A2993 RMK AO2 SLP077 T01610083 TSNO

TAF

Not found

Frequencies

Recorded 135.42 MHz ASOS
Unicom 122.80 MHz CTAF/UNICOM
Warning: Do not use this data for real-world aviation or navigation. No guarantee of current accuracy is given.